createdAt,value
2023-10-29T00:00:45.417Z,1010.3
2023-10-29T00:01:45.442Z,1010.4
2023-10-29T00:03:11.341Z,1010.4
2023-10-29T00:03:45.523Z,1010.3
2023-10-29T00:04:45.637Z,1010.4
2023-10-29T00:05:45.377Z,1010.3
2023-10-29T00:06:46.454Z,1010.3
2023-10-29T00:07:45.322Z,1010.3
2023-10-29T00:08:45.353Z,1010.4
2023-10-29T00:09:45.302Z,1010.4
2023-10-29T00:10:45.363Z,1010.3
2023-10-29T00:11:45.371Z,1010.4
2023-10-29T00:12:45.361Z,1010.3
2023-10-29T00:13:45.410Z,1010.3
2023-10-29T00:14:45.398Z,1010.4
2023-10-29T00:15:45.491Z,1010.4
2023-10-29T00:16:45.330Z,1010.4
2023-10-29T00:17:45.421Z,1010.4
2023-10-29T00:18:45.322Z,1010.4
2023-10-29T00:19:45.306Z,1010.3
2023-10-29T00:20:45.455Z,1010.5
2023-10-29T00:21:45.323Z,1010.4
2023-10-29T00:22:45.307Z,1010.3
2023-10-29T00:23:45.398Z,1010.4
2023-10-29T00:24:45.589Z,1010.3
2023-10-29T00:25:45.305Z,1010.4
2023-10-29T00:26:45.498Z,1010.3
2023-10-29T00:27:45.282Z,1010.4
2023-10-29T00:28:45.341Z,1010.4
2023-10-29T00:29:45.327Z,1010.4
2023-10-29T00:30:45.317Z,1010.4
2023-10-29T00:31:45.314Z,1010.5
2023-10-29T00:32:45.341Z,1010.5
2023-10-29T00:33:45.414Z,1010.4
2023-10-29T00:34:46.124Z,1010.5
2023-10-29T00:35:45.337Z,1010.5
2023-10-29T00:36:46.566Z,1010.5
2023-10-29T00:37:45.429Z,1010.5
2023-10-29T00:38:45.307Z,1010.5
2023-10-29T00:39:45.290Z,1010.6
2023-10-29T00:40:45.273Z,1010.5
2023-10-29T00:41:45.392Z,1010.5
2023-10-29T00:42:45.286Z,1010.5
2023-10-29T00:43:45.302Z,1010.5
2023-10-29T00:44:45.357Z,1010.5
2023-10-29T00:45:45.314Z,1010.5
2023-10-29T00:46:45.259Z,1010.6
2023-10-29T00:47:45.414Z,1010.5
2023-10-29T00:48:45.380Z,1010.5
2023-10-29T00:49:45.290Z,1010.5
2023-10-29T00:50:45.335Z,1010.5
2023-10-29T00:51:45.265Z,1010.5
2023-10-29T00:52:45.924Z,1010.6
2023-10-29T00:53:45.286Z,1010.5
2023-10-29T00:54:45.313Z,1010.5
2023-10-29T00:55:45.816Z,1010.6
2023-10-29T00:56:45.330Z,1010.6
2023-10-29T00:57:45.261Z,1010.6
2023-10-29T00:58:45.226Z,1010.5
2023-10-29T00:59:45.408Z,1010.6
2023-10-29T01:00:45.300Z,1010.6
2023-10-29T01:01:45.223Z,1010.6
2023-10-29T01:02:45.359Z,1010.6
2023-10-29T01:03:45.424Z,1010.6
2023-10-29T01:04:45.219Z,1010.6
2023-10-29T01:05:45.373Z,1010.6
2023-10-29T01:06:45.248Z,1010.5
2023-10-29T01:07:45.250Z,1010.5
2023-10-29T01:08:45.326Z,1010.6
2023-10-29T01:09:45.230Z,1010.6
2023-10-29T01:10:45.441Z,1010.6
2023-10-29T01:11:45.250Z,1010.5
2023-10-29T01:12:45.237Z,1010.6
2023-10-29T01:13:45.266Z,1010.6
2023-10-29T01:14:45.370Z,1010.5
2023-10-29T01:15:45.358Z,1010.5
2023-10-29T01:16:45.244Z,1010.6
2023-10-29T01:17:45.301Z,1010.5
2023-10-29T01:18:45.221Z,1010.6
2023-10-29T01:19:45.240Z,1010.5
2023-10-29T01:20:45.305Z,1010.5
2023-10-29T01:21:45.381Z,1010.5
2023-10-29T01:22:45.229Z,1010.5
2023-10-29T01:23:45.303Z,1010.4
2023-10-29T01:24:45.252Z,1010.5
2023-10-29T01:25:47.170Z,1010.5
2023-10-29T01:26:45.273Z,1010.4
2023-10-29T01:27:45.186Z,1010.4
2023-10-29T01:28:45.208Z,1010.4
2023-10-29T01:29:45.219Z,1010.4
2023-10-29T01:30:45.234Z,1010.4
2023-10-29T01:31:45.254Z,1010.3
2023-10-29T01:32:45.440Z,1010.3
2023-10-29T01:33:45.200Z,1010.3
2023-10-29T01:34:49.456Z,1010.3
2023-10-29T01:35:45.235Z,1010.3
2023-10-29T01:36:45.185Z,1010.3
2023-10-29T01:37:45.228Z,1010.3
2023-10-29T01:38:45.235Z,1010.4
2023-10-29T01:39:45.213Z,1010.4
2023-10-29T01:40:45.198Z,1010.3
2023-10-29T01:41:45.218Z,1010.4
2023-10-29T01:42:45.202Z,1010.4
2023-10-29T01:43:45.292Z,1010.3
2023-10-29T01:44:45.304Z,1010.4
2023-10-29T01:45:45.193Z,1010.3
2023-10-29T01:46:45.186Z,1010.4
2023-10-29T01:47:45.367Z,1010.4
2023-10-29T01:48:45.186Z,1010.4
2023-10-29T01:49:45.150Z,1010.4
2023-10-29T01:50:45.227Z,1010.3
2023-10-29T01:51:45.288Z,1010.4
2023-10-29T01:52:45.140Z,1010.3
2023-10-29T01:53:45.298Z,1010.3
2023-10-29T01:54:45.578Z,1010.3
2023-10-29T01:55:45.238Z,1010.3
2023-10-29T01:56:45.163Z,1010.4
2023-10-29T01:57:45.178Z,1010.3
2023-10-29T01:58:45.122Z,1010.3
2023-10-29T01:59:45.233Z,1010.4
2023-10-29T02:00:45.175Z,1010.3
2023-10-29T02:01:45.180Z,1010.2
2023-10-29T02:02:45.219Z,1010.3
2023-10-29T02:03:45.231Z,1010.3
2023-10-29T02:04:45.300Z,1010.2
2023-10-29T02:05:45.178Z,1010.2
2023-10-29T02:06:45.139Z,1010.2
2023-10-29T02:07:45.180Z,1010.2
2023-10-29T02:08:45.210Z,1010.3
2023-10-29T02:09:45.173Z,1010.2
2023-10-29T02:10:45.151Z,1010.3
2023-10-29T02:11:45.156Z,1010.3
2023-10-29T02:12:45.138Z,1010.3
2023-10-29T02:13:45.134Z,1010.4
2023-10-29T02:14:45.427Z,1010.3
2023-10-29T02:15:45.181Z,1010.3
2023-10-29T02:16:45.423Z,1010.4
2023-10-29T02:17:45.211Z,1010.3
2023-10-29T02:18:45.599Z,1010.3
2023-10-29T02:19:45.110Z,1010.4
2023-10-29T02:20:45.241Z,1010.4
2023-10-29T02:21:45.156Z,1010.4
2023-10-29T02:22:45.121Z,1010.4
2023-10-29T02:23:45.164Z,1010.4
2023-10-29T02:24:45.205Z,1010.4
2023-10-29T02:25:45.156Z,1010.4
2023-10-29T02:26:45.145Z,1010.4
2023-10-29T02:27:45.306Z,1010.3
2023-10-29T02:28:45.136Z,1010.4
2023-10-29T02:29:45.157Z,1010.4
2023-10-29T02:30:45.197Z,1010.4
2023-10-29T02:31:45.177Z,1010.4
2023-10-29T02:32:45.192Z,1010.3
2023-10-29T02:33:45.118Z,1010.4
2023-10-29T02:34:45.235Z,1010.5
2023-10-29T02:35:45.278Z,1010.4
2023-10-29T02:36:45.132Z,1010.4
2023-10-29T02:37:45.094Z,1010.3
2023-10-29T02:38:45.256Z,1010.3
2023-10-29T02:39:45.148Z,1010.4
2023-10-29T02:40:45.236Z,1010.4
2023-10-29T02:41:45.138Z,1010.4
2023-10-29T02:42:45.136Z,1010.4
2023-10-29T02:43:45.120Z,1010.4
2023-10-29T02:44:45.311Z,1010.4
2023-10-29T02:45:45.125Z,1010.4
2023-10-29T02:46:45.103Z,1010.5
2023-10-29T02:47:45.180Z,1010.4
2023-10-29T02:48:45.147Z,1010.4
2023-10-29T02:49:45.068Z,1010.5
2023-10-29T02:50:45.118Z,1010.5
2023-10-29T02:51:45.086Z,1010.6
2023-10-29T02:52:45.085Z,1010.6
2023-10-29T02:53:45.169Z,1010.5
2023-10-29T02:54:45.044Z,1010.6
2023-10-29T02:55:45.075Z,1010.5
2023-10-29T02:56:45.187Z,1010.6
2023-10-29T02:57:45.054Z,1010.5
2023-10-29T02:58:45.098Z,1010.5
2023-10-29T02:59:45.282Z,1010.5
2023-10-29T03:00:45.380Z,1010.6
2023-10-29T03:01:45.108Z,1010.6
2023-10-29T03:02:45.114Z,1010.5
2023-10-29T03:03:45.229Z,1010.6
2023-10-29T03:04:45.067Z,1010.6
2023-10-29T03:05:56.266Z,1010.7
2023-10-29T03:06:45.427Z,1010.6
2023-10-29T03:07:45.046Z,1010.7
2023-10-29T03:08:45.087Z,1010.7
2023-10-29T03:09:45.080Z,1010.7
2023-10-29T03:10:45.093Z,1010.6
2023-10-29T03:11:45.142Z,1010.7
2023-10-29T03:12:45.061Z,1010.7
2023-10-29T03:13:45.119Z,1010.7
2023-10-29T03:14:45.113Z,1010.6
2023-10-29T03:15:45.084Z,1010.6
2023-10-29T03:16:45.057Z,1010.6
2023-10-29T03:17:45.119Z,1010.7
2023-10-29T03:18:45.081Z,1010.7
2023-10-29T03:19:45.015Z,1010.8
2023-10-29T03:20:46.456Z,1010.8
2023-10-29T03:21:45.026Z,1010.8
2023-10-29T03:22:45.043Z,1010.8
2023-10-29T03:23:45.123Z,1010.7
2023-10-29T03:24:45.152Z,1010.7
2023-10-29T03:25:45.096Z,1010.7
2023-10-29T03:26:45.113Z,1010.8
2023-10-29T03:27:45.017Z,1010.9
2023-10-29T03:28:45.024Z,1010.8
2023-10-29T03:29:45.081Z,1010.8
2023-10-29T03:30:45.065Z,1010.8
2023-10-29T03:31:45.375Z,1010.8
2023-10-29T03:32:45.208Z,1010.9
2023-10-29T03:33:45.039Z,1010.8
2023-10-29T03:34:45.061Z,1010.8
2023-10-29T03:35:45.240Z,1010.8
2023-10-29T03:36:45.051Z,1010.7
2023-10-29T03:37:45.037Z,1010.8
2023-10-29T03:38:45.026Z,1010.7
2023-10-29T03:39:45.037Z,1010.8
2023-10-29T03:40:45.050Z,1010.8
2023-10-29T03:41:45.058Z,1010.8
2023-10-29T03:42:45.011Z,1010.8
2023-10-29T03:43:45.223Z,1010.7
2023-10-29T03:44:45.155Z,1010.8
2023-10-29T03:45:45.074Z,1010.8
2023-10-29T03:46:44.984Z,1010.8
2023-10-29T03:47:45.176Z,1010.9
2023-10-29T03:48:45.003Z,1010.8
2023-10-29T03:49:45.030Z,1010.7
2023-10-29T03:50:45.740Z,1010.7
2023-10-29T03:51:45.078Z,1010.7
2023-10-29T03:52:44.963Z,1010.7
2023-10-29T03:53:44.990Z,1010.7
2023-10-29T03:54:45.255Z,1010.7
2023-10-29T03:55:45.041Z,1010.8
2023-10-29T03:56:45.025Z,1010.7
2023-10-29T03:57:44.963Z,1010.7
2023-10-29T03:58:45.008Z,1010.7
2023-10-29T03:59:44.987Z,1010.7
2023-10-29T04:00:45.016Z,1010.7
2023-10-29T04:01:45.053Z,1010.7
2023-10-29T04:02:45.095Z,1010.7
2023-10-29T04:03:45.169Z,1010.6
2023-10-29T04:04:53.592Z,1010.7
2023-10-29T04:05:45.224Z,1010.6
2023-10-29T04:06:44.955Z,1010.6
2023-10-29T04:07:44.986Z,1010.5
2023-10-29T04:08:44.951Z,1010.6
2023-10-29T04:09:45.049Z,1010.6
2023-10-29T04:10:45.011Z,1010.6
2023-10-29T04:11:45.021Z,1010.6
2023-10-29T04:12:44.935Z,1010.6
2023-10-29T04:13:45.089Z,1010.5
2023-10-29T04:14:45.048Z,1010.6
2023-10-29T04:15:45.006Z,1010.6
2023-10-29T04:16:45.082Z,1010.6
2023-10-29T04:17:45.054Z,1010.5
2023-10-29T04:18:44.947Z,1010.5
2023-10-29T04:19:45.015Z,1010.5
2023-10-29T04:20:44.978Z,1010.6
2023-10-29T04:21:44.945Z,1010.5
2023-10-29T04:22:44.985Z,1010.5
2023-10-29T04:23:44.945Z,1010.5
2023-10-29T04:24:44.956Z,1010.5
2023-10-29T04:25:44.967Z,1010.5
2023-10-29T04:26:44.956Z,1010.5
2023-10-29T04:27:44.928Z,1010.4
2023-10-29T04:28:44.969Z,1010.5
2023-10-29T04:29:44.978Z,1010.5
2023-10-29T04:30:45.106Z,1010.5
2023-10-29T04:31:44.956Z,1010.5
2023-10-29T04:32:45.142Z,1010.5
2023-10-29T04:33:44.945Z,1010.5
2023-10-29T04:34:45.067Z,1010.6
2023-10-29T04:35:44.944Z,1010.5
2023-10-29T04:36:44.891Z,1010.5
2023-10-29T04:37:44.906Z,1010.6
2023-10-29T04:38:45.098Z,1010.5
2023-10-29T04:39:44.959Z,1010.4
2023-10-29T04:40:44.946Z,1010.5
2023-10-29T04:41:44.960Z,1010.5
2023-10-29T04:42:44.894Z,1010.5
2023-10-29T04:43:44.924Z,1010.5
2023-10-29T04:44:45.006Z,1010.4
2023-10-29T04:45:45.120Z,1010.5
2023-10-29T04:46:44.911Z,1010.4
2023-10-29T04:47:44.956Z,1010.4
2023-10-29T04:48:44.944Z,1010.4
2023-10-29T04:49:45.072Z,1010.3
2023-10-29T04:50:44.949Z,1010.4
2023-10-29T04:51:45.068Z,1010.4
2023-10-29T04:52:44.913Z,1010.3
2023-10-29T04:53:45.011Z,1010.4
2023-10-29T04:54:44.917Z,1010.4
2023-10-29T04:55:44.885Z,1010.4
2023-10-29T04:56:44.950Z,1010.4
2023-10-29T04:57:44.881Z,1010.4
2023-10-29T04:58:44.934Z,1010.5
2023-10-29T04:59:44.930Z,1010.6
2023-10-29T05:00:45.029Z,1010.5
2023-10-29T05:01:45.011Z,1010.5
2023-10-29T05:02:45.016Z,1010.5
2023-10-29T05:03:45.100Z,1010.5
2023-10-29T05:04:44.919Z,1010.5
2023-10-29T05:05:44.931Z,1010.5
2023-10-29T05:06:44.923Z,1010.5
2023-10-29T05:07:44.877Z,1010.5
2023-10-29T05:08:44.916Z,1010.4
2023-10-29T05:09:44.904Z,1010.5
2023-10-29T05:10:44.871Z,1010.5
2023-10-29T05:11:44.899Z,1010.4
2023-10-29T05:12:44.883Z,1010.4
2023-10-29T05:13:44.929Z,1010.5
2023-10-29T05:14:44.945Z,1010.5
2023-10-29T05:15:44.851Z,1010.5
2023-10-29T05:16:44.917Z,1010.5
2023-10-29T05:17:44.934Z,1010.4
2023-10-29T05:18:44.944Z,1010.4
2023-10-29T05:19:44.870Z,1010.5
2023-10-29T05:20:44.880Z,1010.5
2023-10-29T05:21:44.891Z,1010.5
2023-10-29T05:22:44.984Z,1010.4
2023-10-29T05:23:44.898Z,1010.5
2023-10-29T05:24:44.865Z,1010.5
2023-10-29T05:25:44.839Z,1010.4
2023-10-29T05:26:44.894Z,1010.4
2023-10-29T05:27:44.857Z,1010.5
2023-10-29T05:28:44.862Z,1010.5
2023-10-29T05:29:44.959Z,1010.5
2023-10-29T05:30:44.922Z,1010.6
2023-10-29T05:31:44.836Z,1010.6
2023-10-29T05:32:44.907Z,1010.6
2023-10-29T05:33:44.957Z,1010.6
2023-10-29T05:34:44.908Z,1010.6
2023-10-29T05:35:44.924Z,1010.6
2023-10-29T05:36:44.840Z,1010.7
2023-10-29T05:37:44.827Z,1010.7
2023-10-29T05:38:44.838Z,1010.7
2023-10-29T05:39:44.934Z,1010.7
2023-10-29T05:40:44.836Z,1010.8
2023-10-29T05:41:44.866Z,1010.8
2023-10-29T05:42:44.856Z,1010.7
2023-10-29T05:43:44.797Z,1010.9
2023-10-29T05:44:45.031Z,1010.9
2023-10-29T05:45:44.823Z,1010.8
2023-10-29T05:46:44.814Z,1010.9
2023-10-29T05:47:44.912Z,1010.9
2023-10-29T05:48:44.919Z,1011.0
2023-10-29T05:49:44.827Z,1010.9
2023-10-29T05:50:44.877Z,1011.0
2023-10-29T05:51:44.834Z,1010.9
2023-10-29T05:52:44.838Z,1011.0
2023-10-29T05:53:44.872Z,1011.0
2023-10-29T05:54:44.891Z,1011.1
2023-10-29T05:55:44.983Z,1011.0
2023-10-29T05:56:44.835Z,1011.1
2023-10-29T05:57:44.814Z,1011.1
2023-10-29T05:58:44.838Z,1011.1
2023-10-29T05:59:44.830Z,1011.1
2023-10-29T06:00:44.844Z,1011.1
2023-10-29T06:01:44.825Z,1011.1
2023-10-29T06:02:44.885Z,1011.1
2023-10-29T06:03:45.078Z,1011.2
2023-10-29T06:04:44.873Z,1011.2
2023-10-29T06:05:44.782Z,1011.2
2023-10-29T06:06:44.936Z,1011.3
2023-10-29T06:07:44.803Z,1011.3
2023-10-29T06:08:44.801Z,1011.3
2023-10-29T06:09:44.855Z,1011.2
2023-10-29T06:10:44.829Z,1011.3
2023-10-29T06:11:44.806Z,1011.3
2023-10-29T06:12:44.818Z,1011.3
2023-10-29T06:13:44.795Z,1011.3
2023-10-29T06:14:44.834Z,1011.3
2023-10-29T06:15:44.802Z,1011.2
2023-10-29T06:16:44.833Z,1011.3
2023-10-29T06:17:44.991Z,1011.4
2023-10-29T06:18:44.848Z,1011.3
2023-10-29T06:19:44.816Z,1011.3
2023-10-29T06:20:44.759Z,1011.3
2023-10-29T06:21:44.751Z,1011.3
2023-10-29T06:22:45.412Z,1011.3
2023-10-29T06:23:44.819Z,1011.2
2023-10-29T06:24:44.780Z,1011.2
2023-10-29T06:25:44.775Z,1011.3
2023-10-29T06:26:44.760Z,1011.3
2023-10-29T06:27:44.780Z,1011.2
2023-10-29T06:28:44.749Z,1011.3
2023-10-29T06:29:44.835Z,1011.3
2023-10-29T06:30:44.764Z,1011.3
2023-10-29T06:31:44.823Z,1011.3
2023-10-29T06:32:44.843Z,1011.2
2023-10-29T06:33:44.732Z,1011.2
2023-10-29T06:34:44.749Z,1011.3
2023-10-29T06:35:44.793Z,1011.3
2023-10-29T06:36:44.874Z,1011.3
2023-10-29T06:37:44.736Z,1011.3
2023-10-29T06:38:44.788Z,1011.3
2023-10-29T06:39:45.049Z,1011.3
2023-10-29T06:40:44.762Z,1011.3
2023-10-29T06:41:44.754Z,1011.3
2023-10-29T06:42:44.765Z,1011.3
2023-10-29T06:43:44.810Z,1011.3
2023-10-29T06:44:44.812Z,1011.3
2023-10-29T06:45:44.771Z,1011.3
2023-10-29T06:46:45.444Z,1011.3
2023-10-29T06:47:44.883Z,1011.3
2023-10-29T06:48:44.737Z,1011.3
2023-10-29T06:49:44.781Z,1011.3
2023-10-29T06:50:45.516Z,1011.2
2023-10-29T06:51:44.743Z,1011.2
2023-10-29T06:52:44.709Z,1011.2
2023-10-29T06:53:44.724Z,1011.2
2023-10-29T06:54:44.733Z,1011.2
2023-10-29T06:55:44.761Z,1011.2
2023-10-29T06:56:44.823Z,1011.3
2023-10-29T06:57:44.734Z,1011.2
2023-10-29T06:58:44.745Z,1011.3
2023-10-29T06:59:44.858Z,1011.3
2023-10-29T07:00:44.698Z,1011.3
2023-10-29T07:01:44.833Z,1011.2
2023-10-29T07:02:44.857Z,1011.2
2023-10-29T07:03:44.869Z,1011.1
2023-10-29T07:04:44.772Z,1011.2
2023-10-29T07:05:44.685Z,1011.2
2023-10-29T07:06:44.708Z,1011.1
2023-10-29T07:07:44.749Z,1011.1
2023-10-29T07:08:44.730Z,1011.1
2023-10-29T07:09:44.715Z,1011.1
2023-10-29T07:10:44.702Z,1011.2
2023-10-29T07:11:44.834Z,1011.2
2023-10-29T07:12:44.879Z,1011.1
2023-10-29T07:13:44.789Z,1011.2
2023-10-29T07:14:44.900Z,1011.2
2023-10-29T07:15:44.724Z,1011.2
2023-10-29T07:16:44.768Z,1011.2
2023-10-29T07:17:44.856Z,1011.1
2023-10-29T07:18:44.795Z,1011.1
2023-10-29T07:19:44.737Z,1011.1
2023-10-29T07:20:44.735Z,1011.1
2023-10-29T07:21:44.738Z,1011.2
2023-10-29T07:22:44.698Z,1011.2
2023-10-29T07:23:44.831Z,1011.1
2023-10-29T07:24:44.656Z,1011.2
2023-10-29T07:25:44.798Z,1011.2
2023-10-29T07:26:44.724Z,1011.2
2023-10-29T07:27:44.662Z,1011.2
2023-10-29T07:28:44.714Z,1011.2
2023-10-29T07:29:44.700Z,1011.2
2023-10-29T07:30:44.719Z,1011.2
2023-10-29T07:31:44.699Z,1011.1
2023-10-29T07:32:44.687Z,1011.0
2023-10-29T07:33:44.696Z,1011.1
2023-10-29T07:34:44.748Z,1011.0
2023-10-29T07:35:44.750Z,1011.0
2023-10-29T07:36:44.679Z,1010.9
2023-10-29T07:37:44.650Z,1011.0
2023-10-29T07:38:44.651Z,1010.9
2023-10-29T07:39:44.663Z,1010.9
2023-10-29T07:40:44.683Z,1010.8
2023-10-29T07:41:44.683Z,1011.0
2023-10-29T07:42:44.653Z,1010.8
2023-10-29T07:43:44.673Z,1010.9
2023-10-29T07:44:44.901Z,1010.9
2023-10-29T07:45:45.736Z,1010.9
2023-10-29T07:46:44.633Z,1011.0
2023-10-29T07:47:44.693Z,1010.9
2023-10-29T07:48:44.675Z,1011.0
2023-10-29T07:49:44.637Z,1011.0
2023-10-29T07:50:44.666Z,1011.0
2023-10-29T07:51:44.633Z,1010.9
2023-10-29T07:52:44.617Z,1010.9
2023-10-29T07:53:44.712Z,1011.0
2023-10-29T07:54:44.653Z,1011.0
2023-10-29T07:55:44.650Z,1011.0
2023-10-29T07:56:44.863Z,1011.0
2023-10-29T07:57:44.615Z,1011.0
2023-10-29T07:58:44.636Z,1011.1
2023-10-29T07:59:44.684Z,1011.0
2023-10-29T08:00:44.629Z,1011.1
2023-10-29T08:01:44.663Z,1011.1
2023-10-29T08:02:44.797Z,1011.1
2023-10-29T08:03:44.787Z,1011.1
2023-10-29T08:04:44.671Z,1011.1
2023-10-29T08:05:44.761Z,1011.1
2023-10-29T08:06:44.647Z,1011.0
2023-10-29T08:07:44.733Z,1011.0
2023-10-29T08:08:44.633Z,1011.0
2023-10-29T08:09:44.750Z,1011.0
2023-10-29T08:10:44.657Z,1011.0
2023-10-29T08:11:44.636Z,1011.0
2023-10-29T08:12:44.648Z,1011.1
2023-10-29T08:13:44.593Z,1011.1
2023-10-29T08:14:44.728Z,1011.0
2023-10-29T08:15:44.678Z,1011.1
2023-10-29T08:16:44.607Z,1011.1
2023-10-29T08:17:44.712Z,1011.1
2023-10-29T08:18:44.882Z,1011.0
2023-10-29T08:19:44.610Z,1011.1
2023-10-29T08:20:44.641Z,1011.0
2023-10-29T08:21:44.653Z,1011.1
2023-10-29T08:22:46.229Z,1011.0
2023-10-29T08:23:44.721Z,1011.0
2023-10-29T08:24:44.614Z,1011.1
2023-10-29T08:25:44.622Z,1011.1
2023-10-29T08:26:44.672Z,1011.0
2023-10-29T08:27:44.611Z,1011.1
2023-10-29T08:28:44.569Z,1011.1
2023-10-29T08:29:44.746Z,1011.2
2023-10-29T08:30:44.599Z,1011.2
2023-10-29T08:31:44.628Z,1011.1
2023-10-29T08:32:44.684Z,1011.1
2023-10-29T08:33:44.631Z,1011.2
2023-10-29T08:34:44.649Z,1011.2
2023-10-29T08:35:44.712Z,1011.1
2023-10-29T08:36:44.627Z,1011.1
2023-10-29T08:37:46.543Z,1011.1
2023-10-29T08:38:44.638Z,1011.1
2023-10-29T08:39:44.581Z,1011.1
2023-10-29T08:40:45.543Z,1011.1
2023-10-29T08:41:44.684Z,1011.2
2023-10-29T08:42:44.565Z,1011.2
2023-10-29T08:43:44.597Z,1011.1
2023-10-29T08:44:44.616Z,1011.2
2023-10-29T08:45:44.849Z,1011.1
2023-10-29T08:46:44.626Z,1011.2
2023-10-29T08:47:44.615Z,1011.2
2023-10-29T08:48:44.626Z,1011.2
2023-10-29T08:49:44.596Z,1011.2
2023-10-29T08:50:44.593Z,1011.1
2023-10-29T08:51:44.571Z,1011.1
2023-10-29T08:52:44.631Z,1011.1
2023-10-29T08:53:44.630Z,1011.1
2023-10-29T08:54:44.591Z,1011.0
2023-10-29T08:55:44.620Z,1011.2
2023-10-29T08:56:45.102Z,1011.1
2023-10-29T08:57:44.575Z,1011.1
2023-10-29T08:58:44.564Z,1011.2
2023-10-29T08:59:44.605Z,1011.1
2023-10-29T09:00:46.977Z,1011.1
2023-10-29T09:01:44.532Z,1011.1
2023-10-29T09:02:47.388Z,1011.2
2023-10-29T09:03:44.696Z,1011.2
2023-10-29T09:04:44.572Z,1011.2
2023-10-29T09:05:45.034Z,1011.2
2023-10-29T09:06:44.589Z,1011.1
2023-10-29T09:07:44.511Z,1011.1
2023-10-29T09:08:44.522Z,1011.1
2023-10-29T09:09:44.566Z,1011.1
2023-10-29T09:10:44.723Z,1011.1
2023-10-29T09:11:44.635Z,1011.1
2023-10-29T09:12:44.581Z,1011.1
2023-10-29T09:13:44.675Z,1011.1
2023-10-29T09:14:44.625Z,1011.1
2023-10-29T09:15:44.693Z,1011.1
2023-10-29T09:16:44.634Z,1011.2
2023-10-29T09:17:44.668Z,1011.2
2023-10-29T09:18:44.567Z,1011.2
2023-10-29T09:19:44.573Z,1011.2
2023-10-29T09:20:44.592Z,1011.1
2023-10-29T09:21:44.573Z,1011.2
2023-10-29T09:22:44.564Z,1011.1
2023-10-29T09:23:44.584Z,1011.2
2023-10-29T09:24:44.647Z,1011.1
2023-10-29T09:25:44.510Z,1011.1
2023-10-29T09:26:44.514Z,1011.1
2023-10-29T09:27:44.496Z,1011.0
2023-10-29T09:28:44.567Z,1011.1
2023-10-29T09:29:44.594Z,1010.9
2023-10-29T09:30:44.517Z,1011.0
2023-10-29T09:31:44.538Z,1011.0
2023-10-29T09:32:44.623Z,1010.9
2023-10-29T09:33:44.551Z,1010.9
2023-10-29T09:34:45.215Z,1010.9
2023-10-29T09:35:44.635Z,1011.0
2023-10-29T09:36:44.520Z,1010.9
2023-10-29T09:37:44.660Z,1010.9
2023-10-29T09:38:44.527Z,1010.9
2023-10-29T09:39:44.509Z,1010.9
2023-10-29T09:40:44.486Z,1010.9
2023-10-29T09:41:44.599Z,1010.9
2023-10-29T09:42:44.489Z,1010.8
2023-10-29T09:43:44.519Z,1010.8
2023-10-29T09:44:44.519Z,1010.8
2023-10-29T09:45:44.497Z,1010.9
2023-10-29T09:46:44.759Z,1010.8
2023-10-29T09:47:44.566Z,1010.7
2023-10-29T09:48:44.494Z,1010.8
2023-10-29T09:49:44.497Z,1010.7
2023-10-29T09:50:44.489Z,1010.7
2023-10-29T09:51:44.510Z,1010.7
2023-10-29T09:52:44.668Z,1010.7
2023-10-29T09:53:44.483Z,1010.6
2023-10-29T09:54:44.491Z,1010.7
2023-10-29T09:55:44.482Z,1010.5
2023-10-29T09:56:44.554Z,1010.6
2023-10-29T09:57:44.458Z,1010.6
2023-10-29T09:58:44.547Z,1010.5
2023-10-29T09:59:44.464Z,1010.6
2023-10-29T10:00:44.460Z,1010.6
2023-10-29T10:01:55.700Z,1010.6
2023-10-29T10:02:44.558Z,1010.5
2023-10-29T10:03:44.625Z,1010.5
2023-10-29T10:04:44.489Z,1010.5
2023-10-29T10:05:45.630Z,1010.5
2023-10-29T10:06:44.670Z,1010.4
2023-10-29T10:07:44.442Z,1010.4
2023-10-29T10:08:44.631Z,1010.5
2023-10-29T10:09:44.455Z,1010.4
2023-10-29T10:10:44.472Z,1010.4
2023-10-29T10:11:44.555Z,1010.5
2023-10-29T10:12:44.442Z,1010.5
2023-10-29T10:13:44.450Z,1010.5
2023-10-29T10:14:44.491Z,1010.4
2023-10-29T10:15:44.497Z,1010.4
2023-10-29T10:16:44.508Z,1010.3
2023-10-29T10:17:44.521Z,1010.4
2023-10-29T10:18:44.506Z,1010.3
2023-10-29T10:19:44.610Z,1010.3
2023-10-29T10:20:44.489Z,1010.3
2023-10-29T10:21:44.499Z,1010.3
2023-10-29T10:22:44.466Z,1010.3
2023-10-29T10:23:44.508Z,1010.4
2023-10-29T10:24:46.744Z,1010.4
2023-10-29T10:25:44.437Z,1010.4
2023-10-29T10:26:44.530Z,1010.3
2023-10-29T10:27:44.417Z,1010.2
2023-10-29T10:28:44.405Z,1010.3
2023-10-29T10:29:44.487Z,1010.3
2023-10-29T10:30:44.593Z,1010.3
2023-10-29T10:31:44.577Z,1010.3
2023-10-29T10:32:44.507Z,1010.2
2023-10-29T10:33:44.457Z,1010.2
2023-10-29T10:34:44.433Z,1010.2
2023-10-29T10:35:46.107Z,1010.2
2023-10-29T10:36:44.474Z,1010.2
2023-10-29T10:37:44.433Z,1010.2
2023-10-29T10:38:44.431Z,1010.1
2023-10-29T10:39:44.443Z,1010.1
2023-10-29T10:40:44.439Z,1010.1
2023-10-29T10:41:44.730Z,1010.1
2023-10-29T10:42:44.420Z,1010.1
2023-10-29T10:43:44.413Z,1010.2
2023-10-29T10:44:44.426Z,1010.2
2023-10-29T10:45:44.449Z,1010.1
2023-10-29T10:46:44.446Z,1010.2
2023-10-29T10:47:44.409Z,1010.2
2023-10-29T10:48:44.407Z,1010.2
2023-10-29T10:49:44.417Z,1010.1
2023-10-29T10:50:44.513Z,1010.1
2023-10-29T10:51:44.471Z,1010.1
2023-10-29T10:52:44.598Z,1010.1
2023-10-29T10:53:44.422Z,1010.1
2023-10-29T10:54:44.430Z,1010.1
2023-10-29T10:55:55.504Z,1010.2
2023-10-29T10:56:44.463Z,1010.1
2023-10-29T10:57:44.355Z,1010.1
2023-10-29T10:58:44.406Z,1010.1
2023-10-29T10:59:45.598Z,1010.1
2023-10-29T11:00:44.416Z,1010.1
2023-10-29T11:01:44.492Z,1010.0
2023-10-29T11:02:46.412Z,1010.0
2023-10-29T11:03:44.618Z,1010.1
2023-10-29T11:04:44.594Z,1010.1
2023-10-29T11:05:44.494Z,1010.1
2023-10-29T11:06:44.394Z,1010.2
2023-10-29T11:07:44.427Z,1010.1
2023-10-29T11:08:44.407Z,1010.1
2023-10-29T11:09:44.400Z,1010.1
2023-10-29T11:10:44.459Z,1010.1
2023-10-29T11:11:44.385Z,1010.1
2023-10-29T11:12:44.391Z,1010.0
2023-10-29T11:13:44.398Z,1010.2
2023-10-29T11:14:44.366Z,1010.0
2023-10-29T11:15:44.377Z,1010.1
2023-10-29T11:16:44.446Z,1010.1
2023-10-29T11:17:44.407Z,1010.0
2023-10-29T11:18:44.376Z,1010.1
2023-10-29T11:19:44.365Z,1010.0
2023-10-29T11:20:44.596Z,1010.0
2023-10-29T11:21:44.392Z,1010.0
2023-10-29T11:22:44.385Z,1010.0
2023-10-29T11:23:44.387Z,1009.9
2023-10-29T11:24:44.375Z,1009.9
2023-10-29T11:25:44.603Z,1009.9
2023-10-29T11:26:44.435Z,1009.8
2023-10-29T11:27:44.380Z,1009.9
2023-10-29T11:28:44.376Z,1009.9
2023-10-29T11:29:44.364Z,1009.8
2023-10-29T11:30:44.362Z,1009.8
2023-10-29T11:31:44.529Z,1009.9
2023-10-29T11:32:44.585Z,1009.9
2023-10-29T11:33:44.772Z,1009.9
2023-10-29T11:34:44.356Z,1009.9
2023-10-29T11:35:45.663Z,1009.8
2023-10-29T11:36:44.401Z,1009.8
2023-10-29T11:37:44.351Z,1009.7
2023-10-29T11:38:44.402Z,1009.8
2023-10-29T11:39:44.334Z,1009.7
2023-10-29T11:40:44.353Z,1009.8
2023-10-29T11:41:45.732Z,1009.7
2023-10-29T11:42:44.335Z,1009.7
2023-10-29T11:43:44.354Z,1009.7
2023-10-29T11:44:44.359Z,1009.7
2023-10-29T11:45:44.333Z,1009.6
2023-10-29T11:46:44.352Z,1009.7
2023-10-29T11:47:44.553Z,1009.5
2023-10-29T11:48:44.419Z,1009.6
2023-10-29T11:49:44.322Z,1009.6
2023-10-29T11:50:44.395Z,1009.5
2023-10-29T11:51:44.311Z,1009.6
2023-10-29T11:52:44.332Z,1009.6
2023-10-29T11:53:44.360Z,1009.6
2023-10-29T11:54:44.327Z,1009.6
2023-10-29T11:55:44.367Z,1009.6
2023-10-29T11:56:44.363Z,1009.6
2023-10-29T11:57:44.305Z,1009.6
2023-10-29T11:58:44.463Z,1009.5
2023-10-29T11:59:44.354Z,1009.6
2023-10-29T12:00:44.336Z,1009.6
2023-10-29T12:01:44.307Z,1009.6
2023-10-29T12:02:44.340Z,1009.6
2023-10-29T12:03:44.579Z,1009.6
2023-10-29T12:04:44.370Z,1009.5
2023-10-29T12:05:44.332Z,1009.6
2023-10-29T12:06:44.352Z,1009.6
2023-10-29T12:07:44.331Z,1009.6
2023-10-29T12:08:44.377Z,1009.5
2023-10-29T12:09:44.512Z,1009.5
2023-10-29T12:10:44.344Z,1009.5
2023-10-29T12:11:44.339Z,1009.5
2023-10-29T12:12:44.364Z,1009.5
2023-10-29T12:13:44.354Z,1009.5
2023-10-29T12:14:44.299Z,1009.5
2023-10-29T12:15:44.281Z,1009.5
2023-10-29T12:16:44.343Z,1009.4
2023-10-29T12:17:44.358Z,1009.5
2023-10-29T12:18:44.294Z,1009.5
2023-10-29T12:19:44.271Z,1009.4
2023-10-29T12:20:44.513Z,1009.4
2023-10-29T12:21:44.267Z,1009.5
2023-10-29T12:22:44.283Z,1009.4
2023-10-29T12:23:44.357Z,1009.4
2023-10-29T12:24:44.283Z,1009.4
2023-10-29T12:25:44.324Z,1009.3
2023-10-29T12:26:44.321Z,1009.3
2023-10-29T12:27:44.281Z,1009.2
2023-10-29T12:28:44.332Z,1009.3